Time;durP1;ratioP1;P1;durP2;ratioP2;P2;SDS_P1;SDS_P2;PMS_P1;PMS_P2;Temp;Humidity;BMP_temperature;BMP_pressure;BME280_temperature;BME280_humidity;BME280_pressure;Samples;Min_cycle;Max_cycle;Signal;HPM_P1;HPM_P2
2021/09/12 10:55:08;;;;;;;10.00;6.23;;;23.40;99.90;;;;;;6276492;22;20257;-86
2021/09/12 10:57:36;;;;;;;13.47;7.50;;;23.70;99.90;;;;;;6277694;22;20177;-86
2021/09/12 11:00:04;;;;;;;12.50;7.07;;;23.90;99.90;;;;;;6276156;22;20150;-86
2021/09/12 11:02:31;;;;;;;10.83;6.43;;;23.80;99.90;;;;;;6275582;22;20635;-87
2021/09/12 11:04:57;;;;;;;14.07;6.53;;;23.90;99.90;;;;;;6275644;22;20229;-85
2021/09/12 11:07:22;;;;;;;10.63;6.20;;;23.90;99.90;;;;;;6275648;22;20201;-86
2021/09/12 11:09:49;;;;;;;15.80;6.67;;;23.80;99.90;;;;;;6277614;22;20609;-88
2021/09/12 11:12:15;;;;;;;13.27;7.10;;;23.80;99.90;;;;;;6275791;22;20147;-86
2021/09/12 11:14:41;;;;;;;12.60;6.77;;;23.80;99.90;;;;;;6275387;22;20229;-86
2021/09/12 11:17:08;;;;;;;14.60;7.30;;;24.00;99.90;;;;;;6275050;22;20535;-82
2021/09/12 11:19:35;;;;;;;10.93;6.67;;;24.20;99.90;;;;;;6275736;22;20154;-81
2021/09/12 11:22:00;;;;;;;11.80;6.33;;;24.40;99.90;;;;;;6276352;22;20174;-81
2021/09/12 11:24:27;;;;;;;9.73;6.40;;;24.30;99.90;;;;;;6277645;22;20161;-81
2021/09/12 11:26:54;;;;;;;9.60;5.90;;;24.60;99.90;;;;;;6277021;22;20172;-82
2021/09/12 11:29:25;;;;;;;8.80;5.20;;;25.90;99.90;;;;;;6276940;22;20140;-81
2021/09/12 11:32:24;;;;;;;8.17;5.37;;;26.90;98.80;;;;;;6276537;22;20142;-84
2021/09/12 11:34:51;;;;;;;10.23;6.27;;;26.80;98.10;;;;;;6188632;23;20183;-84
2021/09/12 11:37:19;;;;;;;10.10;5.90;;;27.00;97.90;;;;;;6212182;23;20160;-81
2021/09/12 11:39:53;;;;;;;9.87;5.93;;;27.70;97.50;;;;;;6158740;23;20160;-82
2021/09/12 11:42:19;;;;;;;9.27;5.63;;;28.10;96.00;;;;;;6182809;23;20198;-86
2021/09/12 11:44:51;;;;;;;11.60;6.00;;;27.90;95.50;;;;;;6183512;23;20148;-87
2021/09/12 11:47:21;;;;;;;10.57;5.60;;;27.40;95.80;;;;;;6183670;23;20152;-87
2021/09/12 11:50:00;;;;;;;9.13;6.57;;;27.00;95.90;;;;;;6183399;23;20211;-87
2021/09/12 11:52:36;;;;;;;10.43;5.20;;;26.70;96.00;;;;;;6157756;23;20219;-86
2021/09/12 11:55:16;;;;;;;9.60;6.17;;;26.50;96.70;;;;;;6183312;23;20252;-87
2021/09/12 15:08:06;;;;;;;4.72;3.65;;;32.90;80.40;;;;;;6249887;22;20259;-90
2021/09/12 15:10:31;;;;;;;5.30;3.17;;;33.40;78.10;;;;;;6277632;22;20142;-91
2021/09/12 15:13:00;;;;;;;4.80;2.95;;;33.60;76.50;;;;;;6275602;22;20521;-92
2021/09/12 15:22:10;;;;;;;2.78;2.50;;;34.20;76.00;;;;;;6281524;22;20271;-85
2021/09/12 15:24:35;;;;;;;5.38;3.10;;;34.50;72.90;;;;;;6278113;22;20147;-82
2021/09/12 15:27:02;;;;;;;4.28;3.47;;;34.50;73.30;;;;;;6277567;22;20142;-82
2021/09/12 15:29:28;;;;;;;5.20;3.80;;;33.50;73.80;;;;;;6276081;22;20153;-81
2021/09/12 15:31:53;;;;;;;6.07;3.83;;;32.60;73.90;;;;;;6277052;22;20671;-87
2021/09/12 15:34:21;;;;;;;7.70;4.57;;;32.00;74.70;;;;;;6275404;22;20486;-90
2021/09/12 15:36:47;;;;;;;6.07;4.37;;;31.60;75.90;;;;;;6277528;22;20147;-87
2021/09/12 15:39:13;;;;;;;5.67;4.87;;;31.40;77.80;;;;;;6277856;22;20172;-81
2021/09/12 15:41:38;;;;;;;6.90;5.77;;;31.00;78.90;;;;;;6274728;22;20479;-80
2021/09/12 15:44:07;;;;;;;8.83;6.17;;;30.40;80.40;;;;;;6274810;22;20516;-81
2021/09/12 15:46:33;;;;;;;6.60;5.57;;;30.00;81.70;;;;;;6275407;22;20678;-80
2021/09/12 15:48:59;;;;;;;7.83;6.00;;;29.30;83.20;;;;;;6275547;22;20178;-82
2021/09/12 15:51:28;;;;;;;9.20;5.47;;;28.50;84.80;;;;;;6275370;22;20158;-82
2021/09/12 15:53:54;;;;;;;8.20;5.73;;;28.20;86.80;;;;;;6275439;22;20146;-81
2021/09/12 15:56:25;;;;;;;9.73;6.70;;;28.10;87.50;;;;;;6278817;22;20185;-82
2021/09/12 15:58:51;;;;;;;8.10;5.77;;;28.10;87.30;;;;;;6277902;22;20135;-80
2021/09/12 16:01:17;;;;;;;8.93;5.87;;;27.80;88.30;;;;;;6275611;22;20251;-84
2021/09/12 16:03:43;;;;;;;7.47;5.73;;;27.90;89.00;;;;;;6275045;22;20168;-82
2021/09/12 16:06:09;;;;;;;11.33;6.20;;;28.00;88.30;;;;;;6276809;22;20214;-81
2021/09/12 16:08:35;;;;;;;7.53;5.63;;;28.20;88.90;;;;;;6275445;22;20143;-81
2021/09/12 16:11:00;;;;;;;7.33;5.47;;;28.30;89.30;;;;;;6274904;22;20170;-81
2021/09/12 16:13:26;;;;;;;7.60;5.57;;;28.50;88.90;;;;;;6274583;22;20230;-83
2021/09/12 16:15:52;;;;;;;7.80;6.20;;;28.60;89.50;;;;;;6275216;22;20482;-81
2021/09/12 16:18:17;;;;;;;11.73;6.80;;;28.70;88.40;;;;;;6275565;22;20146;-82
2021/09/12 16:20:43;;;;;;;9.13;6.67;;;28.70;88.50;;;;;;6274257;22;20162;-81
2021/09/12 16:23:09;;;;;;;10.03;7.67;;;28.40;88.00;;;;;;6274220;22;20218;-81
2021/09/12 16:25:35;;;;;;;11.17;7.47;;;27.80;88.40;;;;;;6248948;22;20149;-81
2021/09/12 16:28:01;;;;;;;8.17;6.10;;;27.60;88.70;;;;;;6274793;22;20574;-81
2021/09/12 18:10:48;;;;;;;6.10;5.50;;;23.10;99.30;;;;;;6250509;23;20175;-85
2021/09/12 18:13:14;;;;;;;8.97;5.23;;;23.00;99.40;;;;;;6219667;23;20196;-90
2021/09/12 18:15:40;;;;;;;5.10;4.60;;;22.90;99.60;;;;;;6245807;23;20147;-83
2021/09/12 18:18:06;;;;;;;5.10;4.60;;;22.80;99.90;;;;;;6247081;23;20459;-85
2021/09/12 18:20:32;;;;;;;7.37;5.20;;;22.80;99.60;;;;;;6220893;23;20159;-85
2021/09/12 18:22:57;;;;;;;5.70;4.40;;;22.70;99.50;;;;;;6220477;23;20191;-93
2021/09/12 18:25:23;;;;;;;4.80;4.30;;;22.60;99.90;;;;;;6220709;23;20156;-93
2021/09/12 18:27:53;;;;;;;6.53;4.70;;;22.60;99.90;;;;;;6220886;23;20256;-93
2021/09/12 18:30:21;;;;;;;4.60;3.97;;;22.60;99.60;;;;;;6221293;23;20150;-87
2021/09/12 18:32:47;;;;;;;5.20;4.70;;;22.60;99.90;;;;;;6247565;23;20570;-82
2021/09/12 18:35:13;;;;;;;5.10;4.47;;;22.60;99.70;;;;;;6221358;23;20319;-83
2021/09/12 18:37:42;;;;;;;4.53;4.03;;;22.40;99.90;;;;;;6225139;23;20177;-90
2021/09/12 18:40:15;;;;;;;5.23;4.20;;;22.40;99.90;;;;;;6246427;23;20157;-92
2021/09/12 18:42:43;;;;;;;4.90;4.40;;;22.30;99.90;;;;;;6246544;23;20217;-83
2021/09/12 18:45:09;;;;;;;3.97;3.57;;;22.40;99.90;;;;;;6246288;23;20473;-92
2021/09/12 18:47:35;;;;;;;4.93;3.77;;;22.20;99.90;;;;;;6246299;23;20160;-94
2021/09/12 18:50:01;;;;;;;6.73;3.87;;;22.10;99.90;;;;;;6247427;22;20214;-94
2021/09/12 18:52:27;;;;;;;6.00;3.70;;;22.00;99.90;;;;;;6245375;23;20203;-93
2021/09/12 18:54:53;;;;;;;4.93;3.63;;;22.00;99.90;;;;;;6245625;23;20151;-92
2021/09/12 18:57:19;;;;;;;5.20;3.80;;;22.00;99.90;;;;;;6246004;23;20152;-94
2021/09/12 18:59:45;;;;;;;6.40;4.17;;;21.90;99.90;;;;;;6245202;23;20182;-93
2021/09/12 19:02:10;;;;;;;5.20;3.93;;;21.80;99.90;;;;;;6245137;23;20187;-93
2021/09/12 19:04:36;;;;;;;8.57;3.90;;;21.80;99.90;;;;;;6247074;23;20831;-81
2021/09/12 19:07:03;;;;;;;4.63;4.13;;;21.90;99.90;;;;;;6245320;23;20196;-88
2021/09/12 19:09:29;;;;;;;4.77;3.70;;;21.80;99.90;;;;;;6244388;23;20182;-81
2021/09/12 19:11:54;;;;;;;5.50;4.07;;;21.70;99.90;;;;;;6244938;23;20241;-83
2021/09/12 19:14:23;;;;;;;6.03;4.17;;;21.60;99.90;;;;;;6246239;23;20182;-81
2021/09/12 19:16:49;;;;;;;5.37;4.13;;;21.60;99.90;;;;;;6245717;23;20151;-92
2021/09/12 19:19:16;;;;;;;7.53;4.70;;;21.50;99.90;;;;;;6245531;23;20166;-91
2021/09/12 19:21:42;;;;;;;5.60;3.77;;;21.40;99.90;;;;;;6244992;23;20210;-93
2021/09/12 19:24:08;;;;;;;4.40;4.00;;;21.40;99.90;;;;;;6246354;23;20210;-93
2021/09/12 19:26:34;;;;;;;5.13;4.27;;;21.40;99.90;;;;;;6245696;23;20153;-94
2021/09/12 19:29:00;;;;;;;6.40;4.90;;;21.30;99.90;;;;;;6246118;23;20202;-88
2021/09/12 19:31:25;;;;;;;6.50;4.00;;;21.30;99.90;;;;;;6245652;23;20150;-93
2021/09/12 19:33:51;;;;;;;5.13;4.60;;;21.30;99.90;;;;;;6246907;22;20269;-89
2021/09/12 19:36:16;;;;;;;5.07;4.57;;;21.30;99.90;;;;;;6245945;22;20142;-86
2021/09/12 19:38:42;;;;;;;4.60;4.10;;;21.20;99.90;;;;;;6242975;23;20182;-85
2021/09/12 19:41:08;;;;;;;5.33;4.40;;;21.10;99.90;;;;;;6244261;23;20154;-86
2021/09/12 19:43:34;;;;;;;6.50;4.87;;;21.10;99.90;;;;;;6247090;22;20201;-93
2021/09/12 19:46:03;;;;;;;6.77;4.63;;;21.00;99.90;;;;;;6247149;22;20213;-90
2021/09/12 19:48:29;;;;;;;6.27;4.73;;;21.10;99.90;;;;;;6244922;23;20233;-88
2021/09/12 19:50:54;;;;;;;6.90;4.93;;;21.10;99.90;;;;;;6245161;23;20157;-93
2021/09/12 19:53:20;;;;;;;8.13;5.20;;;20.90;99.90;;;;;;6244985;23;20161;-93
2021/09/12 19:55:46;;;;;;;5.80;5.30;;;21.00;99.90;;;;;;6245917;23;20221;-93
2021/09/12 19:58:11;;;;;;;4.83;4.43;;;20.90;99.90;;;;;;6245498;23;20177;-87
2021/09/12 20:00:37;;;;;;;6.23;5.10;;;20.80;99.90;;;;;;6245323;23;20150;-95
2021/09/12 20:03:03;;;;;;;5.87;4.63;;;20.80;99.90;;;;;;6244715;23;20189;-92
2021/09/12 20:05:28;;;;;;;6.47;4.43;;;20.70;99.90;;;;;;6245015;23;20649;-94
2021/09/12 20:07:54;;;;;;;5.83;4.83;;;20.60;99.90;;;;;;6245811;23;20157;-90
2021/09/12 20:10:20;;;;;;;5.53;4.90;;;20.60;99.90;;;;;;6244752;23;20654;-84
2021/09/12 20:12:46;;;;;;;7.50;5.43;;;20.60;99.90;;;;;;6245168;23;20595;-89
2021/09/12 20:53:00;;;;;;;8.37;5.90;;;20.00;99.90;;;;;;6244879;22;20185;-79
2021/09/12 20:55:25;;;;;;;6.47;5.60;;;20.00;99.90;;;;;;6217812;23;20155;-81
2021/09/12 20:57:51;;;;;;;7.23;5.80;;;19.90;99.90;;;;;;6220821;23;20152;-80
2021/09/12 21:00:17;;;;;;;8.27;6.10;;;19.90;99.90;;;;;;6223139;23;20155;-80
2021/09/12 21:02:43;;;;;;;6.30;5.20;;;19.70;99.90;;;;;;6220955;23;20654;-81
2021/09/12 21:05:09;;;;;;;9.87;5.43;;;19.70;99.90;;;;;;6244646;23;20467;-81
2021/09/12 21:07:34;;;;;;;6.93;5.57;;;19.60;99.90;;;;;;6244801;23;20203;-80
2021/09/12 21:10:00;;;;;;;7.63;5.67;;;19.60;99.90;;;;;;6217938;23;20156;-81
2021/09/12 21:12:26;;;;;;;8.20;5.33;;;19.60;99.90;;;;;;6244833;23;20143;-81
2021/09/12 21:14:51;;;;;;;7.83;5.80;;;19.60;99.90;;;;;;6245626;23;20135;-80
2021/09/12 21:17:17;;;;;;;6.83;5.13;;;19.60;99.90;;;;;;6217743;23;20481;-81
2021/09/12 21:19:43;;;;;;;7.80;5.40;;;19.50;99.90;;;;;;6220169;23;20146;-80
2021/09/12 21:22:08;;;;;;;7.93;5.53;;;19.50;99.90;;;;;;6246786;23;20236;-79
2021/09/12 21:24:34;;;;;;;6.10;5.50;;;19.60;99.90;;;;;;6219675;23;20152;-79
2021/09/12 21:26:59;;;;;;;7.90;5.43;;;19.50;99.90;;;;;;6219133;23;20160;-79
2021/09/12 21:29:25;;;;;;;8.80;6.07;;;19.50;99.90;;;;;;6214991;23;20149;-78
2021/09/12 21:31:51;;;;;;;7.43;5.73;;;19.50;99.90;;;;;;6246481;23;20137;-80
2021/09/12 21:34:16;;;;;;;8.03;5.87;;;19.40;99.90;;;;;;6220193;23;20530;-80
2021/09/12 21:36:42;;;;;;;7.50;6.60;;;19.40;99.90;;;;;;6219855;23;20165;-79
2021/09/12 21:39:08;;;;;;;7.87;6.50;;;19.30;99.90;;;;;;6244572;23;20635;-81
2021/09/12 21:41:33;;;;;;;9.13;6.57;;;19.30;99.90;;;;;;6243583;23;20193;-80
2021/09/12 21:43:59;;;;;;;7.43;6.13;;;19.10;99.90;;;;;;6246358;23;20155;-80
2021/09/12 21:46:25;;;;;;;8.27;6.43;;;19.00;99.90;;;;;;6247399;22;20141;-80
2021/09/12 21:48:50;;;;;;;7.57;6.10;;;19.10;99.90;;;;;;6248084;22;20471;-80
2021/09/12 21:51:18;;;;;;;6.80;6.07;;;19.10;99.90;;;;;;6246743;23;20154;-80
2021/09/12 21:53:44;;;;;;;7.80;6.30;;;19.20;99.90;;;;;;6246140;23;20160;-81
2021/09/12 21:56:10;;;;;;;6.87;6.17;;;19.10;99.90;;;;;;6248038;22;20186;-80
2021/09/12 21:58:36;;;;;;;9.20;6.50;;;19.10;99.90;;;;;;6245164;23;20158;-79
2021/09/12 22:01:01;;;;;;;8.50;6.83;;;19.00;99.90;;;;;;6246249;22;20138;-80
2021/09/12 22:03:27;;;;;;;11.13;7.67;;;18.90;99.90;;;;;;6245818;23;20170;-83
2021/09/12 22:05:53;;;;;;;10.17;7.13;;;18.80;99.90;;;;;;6245637;23;20162;-81
2021/09/12 22:08:19;;;;;;;10.50;7.60;;;18.80;99.90;;;;;;6245409;23;20668;-80
2021/09/12 22:10:45;;;;;;;10.17;6.80;;;18.90;99.90;;;;;;6245233;23;20144;-79
2021/09/12 22:13:10;;;;;;;9.77;6.47;;;18.80;99.90;;;;;;6244653;23;20226;-81
2021/09/12 22:15:36;;;;;;;11.07;6.47;;;18.70;99.90;;;;;;6245428;22;20521;-81
2021/09/12 22:18:03;;;;;;;11.17;6.97;;;18.70;99.90;;;;;;6246173;22;20140;-79
2021/09/12 22:20:28;;;;;;;9.87;7.03;;;18.60;99.90;;;;;;6244229;23;20504;-80
2021/09/12 22:22:54;;;;;;;9.60;7.50;;;18.60;99.90;;;;;;6242003;23;20191;-79
2021/09/12 22:25:20;;;;;;;10.30;7.03;;;18.70;99.90;;;;;;6243204;22;20198;-80
2021/09/12 22:27:45;;;;;;;8.10;7.10;;;18.60;99.90;;;;;;6239799;23;20619;-80
2021/09/12 22:30:11;;;;;;;9.83;7.50;;;18.60;99.90;;;;;;6244170;23;20152;-80
2021/09/12 22:32:38;;;;;;;9.70;8.33;;;18.60;99.90;;;;;;6239437;23;20151;-80
2021/09/12 22:35:05;;;;;;;11.07;7.73;;;18.60;99.90;;;;;;6239015;23;20147;-80
2021/09/12 22:37:30;;;;;;;14.27;8.10;;;18.50;99.90;;;;;;6240397;23;20176;-80
2021/09/12 22:39:56;;;;;;;9.50;7.57;;;18.50;99.90;;;;;;6240116;23;20606;-80
2021/09/12 22:42:22;;;;;;;12.43;8.17;;;18.50;99.90;;;;;;6239821;23;20206;-79
2021/09/12 22:44:47;;;;;;;8.97;7.27;;;18.50;99.90;;;;;;6241815;22;20245;-79
2021/09/12 22:47:13;;;;;;;11.43;8.83;;;18.30;99.90;;;;;;6242116;23;20190;-79
2021/09/12 22:49:42;;;;;;;12.00;8.47;;;18.30;99.90;;;;;;6242385;23;20154;-80
2021/09/12 22:52:09;;;;;;;11.07;7.73;;;18.40;99.90;;;;;;6241370;23;20175;-80
2021/09/12 22:54:35;;;;;;;9.40;7.77;;;18.30;99.90;;;;;;6241471;23;20148;-80
2021/09/12 22:57:01;;;;;;;12.27;8.30;;;18.40;99.90;;;;;;6241446;23;20150;-79
2021/09/12 22:59:26;;;;;;;10.87;7.50;;;18.40;99.90;;;;;;6242640;22;20136;-82
2021/09/12 23:01:52;;;;;;;11.20;7.40;;;18.60;99.90;;;;;;6241641;23;20282;-83
2021/09/12 23:04:17;;;;;;;10.00;7.50;;;18.40;99.90;;;;;;6241628;23;20151;-82
2021/09/12 23:06:43;;;;;;;9.80;7.03;;;18.50;99.90;;;;;;6242679;22;20550;-80
2021/09/12 23:09:09;;;;;;;8.67;6.27;;;18.40;99.90;;;;;;6242731;22;20140;-79
2021/09/12 23:11:34;;;;;;;8.47;5.90;;;18.40;99.90;;;;;;6242875;22;20141;-80
2021/09/12 23:14:00;;;;;;;8.43;5.80;;;18.30;99.90;;;;;;6246171;22;20254;-79
2021/09/12 23:16:26;;;;;;;7.23;5.80;;;18.40;99.90;;;;;;6246339;22;20143;-80
2021/09/12 23:18:51;;;;;;;8.60;5.50;;;18.40;99.90;;;;;;6244523;23;20148;-80
2021/09/12 23:21:17;;;;;;;7.83;5.63;;;18.30;99.90;;;;;;6243950;23;20152;-80
2021/09/12 23:23:42;;;;;;;7.97;5.10;;;18.20;99.90;;;;;;6244035;23;20148;-80
2021/09/12 23:26:09;;;;;;;8.47;5.03;;;18.30;99.90;;;;;;6244154;23;20481;-80
2021/09/12 23:28:35;;;;;;;7.93;4.87;;;18.30;99.90;;;;;;6244046;23;20156;-83
2021/09/12 23:31:01;;;;;;;5.97;4.60;;;18.40;99.90;;;;;;6245931;22;20148;-84
2021/09/12 23:33:26;;;;;;;7.07;5.17;;;18.20;99.90;;;;;;6244243;23;20521;-84
2021/09/12 23:35:52;;;;;;;5.17;4.67;;;18.10;99.90;;;;;;6244665;23;20198;-85
2021/09/12 23:38:18;;;;;;;8.50;4.40;;;18.00;99.90;;;;;;6243674;23;20171;-81
2021/09/12 23:40:43;;;;;;;5.07;4.53;;;18.00;99.90;;;;;;6244418;23;20151;-85
2021/09/12 23:43:09;;;;;;;6.53;4.40;;;18.00;99.90;;;;;;6246121;22;20472;-84
2021/09/12 23:45:35;;;;;;;6.53;4.60;;;18.00;99.90;;;;;;6244565;23;20152;-83
2021/09/12 23:48:00;;;;;;;7.87;4.30;;;17.90;99.90;;;;;;6242471;23;20156;-85
2021/09/12 23:50:26;;;;;;;5.73;4.30;;;17.80;99.90;;;;;;6243378;22;20212;-80
2021/09/12 23:52:52;;;;;;;5.67;4.40;;;17.70;99.90;;;;;;6243808;23;20665;-80
2021/09/12 23:55:18;;;;;;;6.90;4.37;;;17.70;99.90;;;;;;6244366;23;20154;-79
2021/09/12 23:57:43;;;;;;;9.67;4.63;;;17.70;99.90;;;;;;6244193;23;20152;-83
